< < Back
Terminal Aerodrome Forecast


Current Version              Previous Versions:   1  2  3  4  5  6  7  8  9  

Terminal Aerodrome Forecast

828
FTUS42 KTAE 251736
TAFVLD
TAF
KVLD 251736Z 2518/2618 19009KT P6SM SCT070
     FM260200 VRB03KT P6SM SCT250
     FM261500 20006KT P6SM SCT250=

Latest METAR

627
SAUS70 KWBC 260600 RRB
MTRVLD
METAR KVLD 260553Z AUTO 17006KT 10SM CLR 21/16 A3018 RMK AO2 SLP225
T02110156 10278 20206 58006


USA.gov is the U.S. government's official web portal to all federal, state and local government web resources and services.